sensor_id;sensor_type;location;lat;lon;timestamp;pressure;altitude;pressure_sealevel;temperature;humidity
57094;BME280;42970;50.996;3.706;2023-04-27T00:00:20;75537.25;;;-146.65;59.03
57094;BME280;42970;50.996;3.706;2023-04-27T00:02:45;75589.69;;;-146.65;60.05
57094;BME280;42970;50.996;3.706;2023-04-27T00:05:10;75555.41;;;-146.65;59.42
57094;BME280;42970;50.996;3.706;2023-04-27T00:07:37;75571.53;;;-146.65;59.16
57094;BME280;42970;50.996;3.706;2023-04-27T00:10:02;75615.91;;;-146.65;60.67
57094;BME280;42970;50.996;3.706;2023-04-27T00:12:28;75599.78;;;-146.65;60.69
57094;BME280;42970;50.996;3.706;2023-04-27T00:14:53;75585.66;;;-146.65;60.27
57094;BME280;42970;50.996;3.706;2023-04-27T00:17:18;75595.72;;;-146.65;59.86
57094;BME280;42970;50.996;3.706;2023-04-27T00:19:43;75605.81;;;-146.65;60.42
57094;BME280;42970;50.996;3.706;2023-04-27T00:22:09;75597.75;;;-146.65;60.17
57094;BME280;42970;50.996;3.706;2023-04-27T00:24:35;75630.03;;;-146.65;60.62
57094;BME280;42970;50.996;3.706;2023-04-27T00:27:00;75617.94;;;-146.65;60.85
57094;BME280;42970;50.996;3.706;2023-04-27T00:29:27;75617.94;;;-146.65;61.12
57094;BME280;42970;50.996;3.706;2023-04-27T00:31:52;75613.88;;;-146.65;60.90
57094;BME280;42970;50.996;3.706;2023-04-27T00:34:17;75648.19;;;-146.65;61.18
57094;BME280;42970;50.996;3.706;2023-04-27T00:36:43;75587.66;;;-146.65;60.45
57094;BME280;42970;50.996;3.706;2023-04-27T00:39:08;75621.97;;;-146.65;60.34
57094;BME280;42970;50.996;3.706;2023-04-27T00:41:37;75577.59;;;-146.65;59.88
57094;BME280;42970;50.996;3.706;2023-04-27T00:44:03;75619.94;;;-146.65;60.85
57094;BME280;42970;50.996;3.706;2023-04-27T00:46:29;75632.03;;;-146.65;61.56
57094;BME280;42970;50.996;3.706;2023-04-27T00:48:54;75626.00;;;-146.65;61.15
57094;BME280;42970;50.996;3.706;2023-04-27T00:51:20;75595.72;;;-146.65;60.71
57094;BME280;42970;50.996;3.706;2023-04-27T00:53:45;75617.94;;;-146.65;60.83
57094;BME280;42970;50.996;3.706;2023-04-27T00:56:11;75638.09;;;-146.65;61.46
57094;BME280;42970;50.996;3.706;2023-04-27T00:58:37;75634.06;;;-146.65;61.72
57094;BME280;42970;50.996;3.706;2023-04-27T01:01:02;75658.25;;;-146.65;62.66
57094;BME280;42970;50.996;3.706;2023-04-27T01:03:28;75626.00;;;-146.65;62.17
57094;BME280;42970;50.996;3.706;2023-04-27T01:05:54;75658.25;;;-146.65;62.45
57094;BME280;42970;50.996;3.706;2023-04-27T01:08:20;75658.25;;;-146.65;62.84
57094;BME280;42970;50.996;3.706;2023-04-27T01:10:46;75628.00;;;-146.65;61.86
57094;BME280;42970;50.996;3.706;2023-04-27T01:13:13;75686.50;;;-146.65;62.94
57094;BME280;42970;50.996;3.706;2023-04-27T01:15:39;75688.53;;;-146.65;63.36
57094;BME280;42970;50.996;3.706;2023-04-27T01:18:04;75648.19;;;-146.65;62.32
57094;BME280;42970;50.996;3.706;2023-04-27T01:20:30;75678.44;;;-146.65;62.84
57094;BME280;42970;50.996;3.706;2023-04-27T01:22:56;75678.44;;;-146.65;62.79
57094;BME280;42970;50.996;3.706;2023-04-27T01:25:22;75698.59;;;-146.65;63.02
57094;BME280;42970;50.996;3.706;2023-04-27T01:27:48;75662.31;;;-146.65;62.58
57094;BME280;42970;50.996;3.706;2023-04-27T01:30:13;75678.44;;;-146.65;62.58
57094;BME280;42970;50.996;3.706;2023-04-27T01:32:40;75666.34;;;-146.65;62.67
57094;BME280;42970;50.996;3.706;2023-04-27T01:35:06;75682.47;;;-146.65;62.41
57094;BME280;42970;50.996;3.706;2023-04-27T01:37:31;75674.41;;;-146.65;62.31
57094;BME280;42970;50.996;3.706;2023-04-27T01:39:57;75652.22;;;-146.65;61.94
57094;BME280;42970;50.996;3.706;2023-04-27T01:42:22;75654.22;;;-146.65;61.41
57094;BME280;42970;50.996;3.706;2023-04-27T01:44:47;75630.03;;;-146.65;60.98
57094;BME280;42970;50.996;3.706;2023-04-27T01:47:16;75668.34;;;-146.65;61.56
57094;BME280;42970;50.996;3.706;2023-04-27T01:49:41;75676.41;;;-146.65;62.35
57094;BME280;42970;50.996;3.706;2023-04-27T01:52:07;75684.50;;;-146.65;62.40
57094;BME280;42970;50.996;3.706;2023-04-27T01:54:32;75702.63;;;-146.65;62.79
57094;BME280;42970;50.996;3.706;2023-04-27T01:56:57;75674.41;;;-146.65;62.11
57094;BME280;42970;50.996;3.706;2023-04-27T01:59:23;75672.38;;;-146.65;61.73
57094;BME280;42970;50.996;3.706;2023-04-27T02:01:48;75674.41;;;-146.65;61.79
57094;BME280;42970;50.996;3.706;2023-04-27T02:04:13;75674.41;;;-146.65;61.71
57094;BME280;42970;50.996;3.706;2023-04-27T02:06:39;75678.44;;;-146.65;61.43
57094;BME280;42970;50.996;3.706;2023-04-27T02:09:05;75688.53;;;-146.65;61.18
57094;BME280;42970;50.996;3.706;2023-04-27T02:11:31;75704.66;;;-146.65;61.88
57094;BME280;42970;50.996;3.706;2023-04-27T02:13:56;75694.56;;;-146.65;61.78
57094;BME280;42970;50.996;3.706;2023-04-27T02:16:21;75690.53;;;-146.65;61.09
57094;BME280;42970;50.996;3.706;2023-04-27T02:18:46;75716.75;;;-146.65;62.14
57094;BME280;42970;50.996;3.706;2023-04-27T02:21:13;75678.44;;;-146.65;61.34
57094;BME280;42970;50.996;3.706;2023-04-27T02:23:38;75662.31;;;-146.65;61.18
57094;BME280;42970;50.996;3.706;2023-04-27T02:26:03;75686.50;;;-146.65;61.37
57094;BME280;42970;50.996;3.706;2023-04-27T02:28:29;75710.72;;;-146.65;61.81
57094;BME280;42970;50.996;3.706;2023-04-27T02:30:55;75714.75;;;-146.65;62.45
57094;BME280;42970;50.996;3.706;2023-04-27T02:33:20;75734.91;;;-146.65;62.64
57094;BME280;42970;50.996;3.706;2023-04-27T02:35:45;75734.91;;;-146.65;62.76
57094;BME280;42970;50.996;3.706;2023-04-27T02:38:11;75726.84;;;-146.65;62.63
57094;BME280;42970;50.996;3.706;2023-04-27T02:40:37;75722.81;;;-146.65;62.30
57094;BME280;42970;50.996;3.706;2023-04-27T02:43:03;75738.94;;;-146.65;62.71
57094;BME280;42970;50.996;3.706;2023-04-27T02:45:28;75706.69;;;-146.65;61.78
57094;BME280;42970;50.996;3.706;2023-04-27T02:47:53;75700.63;;;-146.65;61.81
57094;BME280;42970;50.996;3.706;2023-04-27T02:50:19;75747.03;;;-146.65;62.62
57094;BME280;42970;50.996;3.706;2023-04-27T02:52:44;75710.72;;;-146.65;61.89
57094;BME280;42970;50.996;3.706;2023-04-27T02:55:10;75726.84;;;-146.65;62.07
57094;BME280;42970;50.996;3.706;2023-04-27T02:57:35;75753.06;;;-146.65;62.68
57094;BME280;42970;50.996;3.706;2023-04-27T03:00:01;75710.72;;;-146.65;61.88
57094;BME280;42970;50.996;3.706;2023-04-27T03:02:26;75730.88;;;-146.65;62.47
57094;BME280;42970;50.996;3.706;2023-04-27T03:04:52;75726.84;;;-146.65;62.60
57094;BME280;42970;50.996;3.706;2023-04-27T03:07:19;75716.75;;;-146.65;62.56
57094;BME280;42970;50.996;3.706;2023-04-27T03:09:44;75734.91;;;-146.65;62.76
57094;BME280;42970;50.996;3.706;2023-04-27T03:12:10;75724.81;;;-146.65;62.60
57094;BME280;42970;50.996;3.706;2023-04-27T03:14:35;75728.88;;;-146.65;61.99
57094;BME280;42970;50.996;3.706;2023-04-27T03:17:01;75714.75;;;-146.65;62.22
57094;BME280;42970;50.996;3.706;2023-04-27T03:19:27;75718.78;;;-146.65;62.18
57094;BME280;42970;50.996;3.706;2023-04-27T03:21:52;75745.00;;;-146.65;63.38
57094;BME280;42970;50.996;3.706;2023-04-27T03:24:18;75726.84;;;-146.65;62.89
57094;BME280;42970;50.996;3.706;2023-04-27T03:26:43;75757.09;;;-146.65;63.25
57094;BME280;42970;50.996;3.706;2023-04-27T03:29:08;75734.91;;;-146.65;63.20
57094;BME280;42970;50.996;3.706;2023-04-27T03:31:34;75763.16;;;-146.65;63.80
57094;BME280;42970;50.996;3.706;2023-04-27T03:33:59;75747.03;;;-146.65;63.59
57094;BME280;42970;50.996;3.706;2023-04-27T03:36:24;75740.97;;;-146.65;63.63
57094;BME280;42970;50.996;3.706;2023-04-27T03:38:51;75751.06;;;-146.65;63.77
57094;BME280;42970;50.996;3.706;2023-04-27T03:41:16;75734.91;;;-146.65;62.98
57094;BME280;42970;50.996;3.706;2023-04-27T03:43:41;75706.69;;;-146.65;62.66
57094;BME280;42970;50.996;3.706;2023-04-27T03:46:07;75734.91;;;-146.65;63.13
57094;BME280;42970;50.996;3.706;2023-04-27T03:48:32;75755.09;;;-146.65;63.82
57094;BME280;42970;50.996;3.706;2023-04-27T03:50:58;75742.97;;;-146.65;63.41
57094;BME280;42970;50.996;3.706;2023-04-27T03:53:24;75753.06;;;-146.65;63.44
57094;BME280;42970;50.996;3.706;2023-04-27T03:55:49;75777.28;;;-146.65;63.74
57094;BME280;42970;50.996;3.706;2023-04-27T03:58:14;75789.38;;;-146.65;63.84
57094;BME280;42970;50.996;3.706;2023-04-27T04:00:41;75761.13;;;-146.65;63.44
57094;BME280;42970;50.996;3.706;2023-04-27T04:03:06;75736.94;;;-146.65;63.40
57094;BME280;42970;50.996;3.706;2023-04-27T04:05:32;75736.94;;;-146.65;62.99
57094;BME280;42970;50.996;3.706;2023-04-27T04:07:57;75783.31;;;-146.65;64.18
57094;BME280;42970;50.996;3.706;2023-04-27T04:10:23;75738.94;;;-146.65;63.77
57094;BME280;42970;50.996;3.706;2023-04-27T04:12:49;75773.25;;;-146.65;63.85
57094;BME280;42970;50.996;3.706;2023-04-27T04:15:14;75775.25;;;-146.65;64.10
57094;BME280;42970;50.996;3.706;2023-04-27T04:17:40;75787.38;;;-146.65;65.01
57094;BME280;42970;50.996;3.706;2023-04-27T04:20:06;75779.28;;;-146.65;64.13
57094;BME280;42970;50.996;3.706;2023-04-27T04:22:35;75795.44;;;-146.65;64.57
57094;BME280;42970;50.996;3.706;2023-04-27T04:25:00;75779.28;;;-146.65;64.24
57094;BME280;42970;50.996;3.706;2023-04-27T04:27:26;75791.41;;;-146.65;64.14
57094;BME280;42970;50.996;3.706;2023-04-27T04:29:52;75809.56;;;-146.65;64.57
57094;BME280;42970;50.996;3.706;2023-04-27T04:32:17;75805.50;;;-146.65;64.80
57094;BME280;42970;50.996;3.706;2023-04-27T04:34:50;75787.38;;;-146.65;64.78
57094;BME280;42970;50.996;3.706;2023-04-27T04:37:15;75831.75;;;-146.65;65.29
57094;BME280;42970;50.996;3.706;2023-04-27T04:39:44;75769.22;;;-146.65;64.08
57094;BME280;42970;50.996;3.706;2023-04-27T04:42:10;75797.44;;;-146.65;64.71
57094;BME280;42970;50.996;3.706;2023-04-27T04:44:35;75823.66;;;-146.65;64.87
57094;BME280;42970;50.996;3.706;2023-04-27T04:47:01;75751.06;;;-146.65;64.41
57094;BME280;42970;50.996;3.706;2023-04-27T04:49:26;75783.31;;;-146.65;64.81
57094;BME280;42970;50.996;3.706;2023-04-27T04:51:52;75785.34;;;-146.65;64.73
57094;BME280;42970;50.996;3.706;2023-04-27T04:54:17;75781.31;;;-146.65;64.83
57094;BME280;42970;50.996;3.706;2023-04-27T04:56:42;75805.50;;;-146.65;64.80
57094;BME280;42970;50.996;3.706;2023-04-27T04:59:07;75787.38;;;-146.65;64.51
57094;BME280;42970;50.996;3.706;2023-04-27T05:01:33;75773.25;;;-146.65;63.78
57094;BME280;42970;50.996;3.706;2023-04-27T05:03:58;75795.44;;;-146.65;64.37
57094;BME280;42970;50.996;3.706;2023-04-27T05:06:23;75795.44;;;-146.65;64.32
57094;BME280;42970;50.996;3.706;2023-04-27T05:08:49;75759.13;;;-146.65;63.47
57094;BME280;42970;50.996;3.706;2023-04-27T05:11:14;75755.09;;;-146.65;63.35
57094;BME280;42970;50.996;3.706;2023-04-27T05:13:40;75791.41;;;-146.65;63.65
57094;BME280;42970;50.996;3.706;2023-04-27T05:16:05;75801.47;;;-146.65;64.39
57094;BME280;42970;50.996;3.706;2023-04-27T05:18:31;75779.28;;;-146.65;64.04
57094;BME280;42970;50.996;3.706;2023-04-27T05:21:00;75765.16;;;-146.65;63.65
57094;BME280;42970;50.996;3.706;2023-04-27T05:23:25;75749.03;;;-146.65;63.53
57094;BME280;42970;50.996;3.706;2023-04-27T05:25:52;75734.91;;;-146.65;62.91
57094;BME280;42970;50.996;3.706;2023-04-27T05:28:17;75747.03;;;-146.65;63.05
57094;BME280;42970;50.996;3.706;2023-04-27T05:30:43;75745.00;;;-146.65;63.36
57094;BME280;42970;50.996;3.706;2023-04-27T05:33:08;75726.84;;;-146.65;63.69
57094;BME280;42970;50.996;3.706;2023-04-27T05:35:33;75734.91;;;-146.65;62.82
57094;BME280;42970;50.996;3.706;2023-04-27T05:37:59;75696.59;;;-146.65;62.58
57094;BME280;42970;50.996;3.706;2023-04-27T05:40:24;75728.88;;;-146.65;62.92
57094;BME280;42970;50.996;3.706;2023-04-27T05:42:50;75734.91;;;-146.65;62.69
57094;BME280;42970;50.996;3.706;2023-04-27T05:45:15;75742.97;;;-146.65;62.40
57094;BME280;42970;50.996;3.706;2023-04-27T05:47:41;75708.69;;;-146.65;62.19
57094;BME280;42970;50.996;3.706;2023-04-27T05:50:06;75714.75;;;-146.65;62.72
57094;BME280;42970;50.996;3.706;2023-04-27T05:52:32;75716.75;;;-146.65;62.50
57094;BME280;42970;50.996;3.706;2023-04-27T05:54:57;75706.69;;;-146.65;61.99
57094;BME280;42970;50.996;3.706;2023-04-27T05:57:23;75708.69;;;-146.65;62.08
57094;BME280;42970;50.996;3.706;2023-04-27T05:59:48;75652.22;;;-146.65;61.24
57094;BME280;42970;50.996;3.706;2023-04-27T06:02:14;75640.09;;;-146.65;60.39
57094;BME280;42970;50.996;3.706;2023-04-27T06:04:40;75642.13;;;-146.65;59.86
57094;BME280;42970;50.996;3.706;2023-04-27T06:07:09;75640.09;;;-146.65;59.42
57094;BME280;42970;50.996;3.706;2023-04-27T06:09:35;75601.78;;;-146.65;59.11
57094;BME280;42970;50.996;3.706;2023-04-27T06:12:01;75583.63;;;-146.65;58.12
57094;BME280;42970;50.996;3.706;2023-04-27T06:14:27;75617.94;;;-146.65;58.75
57094;BME280;42970;50.996;3.706;2023-04-27T06:16:52;75581.63;;;-146.65;58.23
57094;BME280;42970;50.996;3.706;2023-04-27T06:19:17;75634.06;;;-146.65;58.79
57094;BME280;42970;50.996;3.706;2023-04-27T06:21:43;75587.66;;;-146.65;57.79
57094;BME280;42970;50.996;3.706;2023-04-27T06:24:08;75654.22;;;-146.65;58.47
57094;BME280;42970;50.996;3.706;2023-04-27T06:26:33;75634.06;;;-146.65;58.80
57094;BME280;42970;50.996;3.706;2023-04-27T06:28:59;75589.69;;;-146.65;57.80
57094;BME280;42970;50.996;3.706;2023-04-27T06:31:24;75573.53;;;-146.65;57.49
57094;BME280;42970;50.996;3.706;2023-04-27T06:33:50;75557.41;;;-146.65;57.47
57094;BME280;42970;50.996;3.706;2023-04-27T06:36:16;75561.44;;;-146.65;57.45
57094;BME280;42970;50.996;3.706;2023-04-27T06:38:44;75567.50;;;-146.65;57.61
57094;BME280;42970;50.996;3.706;2023-04-27T06:41:10;75502.94;;;-146.65;56.59
57094;BME280;42970;50.996;3.706;2023-04-27T06:43:35;75529.16;;;-146.65;56.70
57094;BME280;42970;50.996;3.706;2023-04-27T06:46:02;75472.69;;;-146.65;55.99
57094;BME280;42970;50.996;3.706;2023-04-27T06:48:28;75521.09;;;-146.65;56.43
57094;BME280;42970;50.996;3.706;2023-04-27T06:50:53;75502.94;;;-146.65;56.38
57094;BME280;42970;50.996;3.706;2023-04-27T06:53:19;75430.34;;;-146.65;55.32
57094;BME280;42970;50.996;3.706;2023-04-27T06:55:44;75383.94;;;-146.65;54.24
57094;BME280;42970;50.996;3.706;2023-04-27T06:58:10;75398.06;;;-146.65;53.68
57094;BME280;42970;50.996;3.706;2023-04-27T07:00:35;75420.25;;;-146.65;54.19
57094;BME280;42970;50.996;3.706;2023-04-27T07:03:01;75387.97;;;-146.65;52.96
57094;BME280;42970;50.996;3.706;2023-04-27T07:05:26;75367.81;;;-146.65;52.92
57094;BME280;42970;50.996;3.706;2023-04-27T07:07:52;75357.72;;;-146.65;52.32
57094;BME280;42970;50.996;3.706;2023-04-27T07:10:17;75396.06;;;-146.65;52.37
57094;BME280;42970;50.996;3.706;2023-04-27T07:12:42;75394.03;;;-146.65;52.05
57094;BME280;42970;50.996;3.706;2023-04-27T07:15:08;75392.00;;;-146.65;51.99
57094;BME280;42970;50.996;3.706;2023-04-27T07:17:33;75371.84;;;-146.65;51.85
57094;BME280;42970;50.996;3.706;2023-04-27T07:20:02;75271.00;;;-146.65;50.95
57094;BME280;42970;50.996;3.706;2023-04-27T07:22:31;75250.84;;;-146.65;50.50
57094;BME280;42970;50.996;3.706;2023-04-27T07:24:57;75242.75;;;-146.65;49.10
57094;BME280;42970;50.996;3.706;2023-04-27T07:27:22;75277.06;;;-146.65;49.45
57094;BME280;42970;50.996;3.706;2023-04-27T07:29:47;75214.53;;;-146.65;49.15
57094;BME280;42970;50.996;3.706;2023-04-27T07:32:12;75242.75;;;-146.65;48.25
57094;BME280;42970;50.996;3.706;2023-04-27T07:34:38;75275.03;;;-146.65;48.77
57094;BME280;42970;50.996;3.706;2023-04-27T07:37:04;75234.69;;;-146.65;48.67
57094;BME280;42970;50.996;3.706;2023-04-27T07:39:29;75271.00;;;-146.65;48.54
57094;BME280;42970;50.996;3.706;2023-04-27T07:41:55;75234.69;;;-146.65;47.88
57094;BME280;42970;50.996;3.706;2023-04-27T07:44:22;75246.78;;;-146.65;47.61
57094;BME280;42970;50.996;3.706;2023-04-27T07:46:47;75182.25;;;-146.65;47.22
57094;BME280;42970;50.996;3.706;2023-04-27T07:49:16;75178.22;;;-146.65;47.17
57094;BME280;42970;50.996;3.706;2023-04-27T07:51:41;75198.38;;;-146.65;47.21
57094;BME280;42970;50.996;3.706;2023-04-27T07:54:07;75170.16;;;-146.65;47.29
57094;BME280;42970;50.996;3.706;2023-04-27T07:56:35;75180.25;;;-146.65;46.75
57094;BME280;42970;50.996;3.706;2023-04-27T07:59:00;75172.16;;;-146.65;46.77
57094;BME280;42970;50.996;3.706;2023-04-27T08:01:25;75150.00;;;-146.65;46.54
57094;BME280;42970;50.996;3.706;2023-04-27T08:03:51;75073.34;;;-146.65;46.25
57094;BME280;42970;50.996;3.706;2023-04-27T08:06:17;75154.03;;;-146.65;46.17
57094;BME280;42970;50.996;3.706;2023-04-27T08:08:43;75145.94;;;-146.65;45.87
57094;BME280;42970;50.996;3.706;2023-04-27T08:11:10;75097.56;;;-146.65;45.98
57094;BME280;42970;50.996;3.706;2023-04-27T08:13:36;75089.47;;;-146.65;45.01
57094;BME280;42970;50.996;3.706;2023-04-27T08:16:01;75089.47;;;-146.65;45.15
57094;BME280;42970;50.996;3.706;2023-04-27T08:18:27;75075.38;;;-146.65;45.42
57094;BME280;42970;50.996;3.706;2023-04-27T08:20:52;75028.97;;;-146.65;45.15
57094;BME280;42970;50.996;3.706;2023-04-27T08:23:18;75051.16;;;-146.65;45.10
57094;BME280;42970;50.996;3.706;2023-04-27T08:25:43;75037.03;;;-146.65;43.87
57094;BME280;42970;50.996;3.706;2023-04-27T08:28:08;74994.69;;;-146.65;43.61
57094;BME280;42970;50.996;3.706;2023-04-27T08:30:34;75039.06;;;-146.65;42.66
57094;BME280;42970;50.996;3.706;2023-04-27T08:33:02;75035.03;;;-146.65;42.55
57094;BME280;42970;50.996;3.706;2023-04-27T08:35:28;74992.69;;;-146.65;42.48
57094;BME280;42970;50.996;3.706;2023-04-27T08:37:53;74970.50;;;-146.65;42.47
57094;BME280;42970;50.996;3.706;2023-04-27T08:40:19;74934.19;;;-146.65;42.21
57094;BME280;42970;50.996;3.706;2023-04-27T08:42:57;74899.91;;;-146.65;41.50
57094;BME280;42970;50.996;3.706;2023-04-27T08:45:24;74851.50;;;-146.65;41.61
57094;BME280;42970;50.996;3.706;2023-04-27T08:47:49;74879.75;;;-146.65;40.82
57094;BME280;42970;50.996;3.706;2023-04-27T08:50:15;74940.25;;;-146.65;40.81
57094;BME280;42970;50.996;3.706;2023-04-27T08:52:44;74910.00;;;-146.65;40.47
57094;BME280;42970;50.996;3.706;2023-04-27T08:55:10;74893.84;;;-146.65;39.80
57094;BME280;42970;50.996;3.706;2023-04-27T08:57:36;74903.94;;;-146.65;39.08
57094;BME280;42970;50.996;3.706;2023-04-27T09:00:01;74869.66;;;-146.65;40.28
57094;BME280;42970;50.996;3.706;2023-04-27T09:02:36;74849.50;;;-146.65;39.31
57094;BME280;42970;50.996;3.706;2023-04-27T09:05:02;74875.72;;;-146.65;38.54
57094;BME280;42970;50.996;3.706;2023-04-27T09:07:28;74831.34;;;-146.65;38.86
57094;BME280;42970;50.996;3.706;2023-04-27T09:10:00;74811.16;;;-146.65;38.03
57094;BME280;42970;50.996;3.706;2023-04-27T09:12:26;74839.41;;;-146.65;38.45
57094;BME280;42970;50.996;3.706;2023-04-27T09:14:58;74786.97;;;-146.65;38.30
57094;BME280;42970;50.996;3.706;2023-04-27T09:17:25;74795.03;;;-146.65;38.27
57094;BME280;42970;50.996;3.706;2023-04-27T09:20:13;74762.78;;;-146.65;38.37
57094;BME280;42970;50.996;3.706;2023-04-27T09:22:45;74813.19;;;-146.65;38.03
57094;BME280;42970;50.996;3.706;2023-04-27T09:25:27;74797.06;;;-146.65;38.89
57094;BME280;42970;50.996;3.706;2023-04-27T09:27:53;74734.53;;;-146.65;38.31
57094;BME280;42970;50.996;3.706;2023-04-27T09:30:19;74657.91;;;-146.65;36.86
57094;BME280;42970;50.996;3.706;2023-04-27T09:32:55;74684.13;;;-146.65;36.76
57094;BME280;42970;50.996;3.706;2023-04-27T09:35:25;74643.78;;;-146.65;36.27
57094;BME280;42970;50.996;3.706;2023-04-27T09:37:51;74613.53;;;-146.65;36.09
57094;BME280;42970;50.996;3.706;2023-04-27T09:40:17;74655.88;;;-146.65;36.57
57094;BME280;42970;50.996;3.706;2023-04-27T09:42:43;74627.66;;;-146.65;36.32
57094;BME280;42970;50.996;3.706;2023-04-27T09:45:08;74726.47;;;-146.65;36.40
57094;BME280;42970;50.996;3.706;2023-04-27T09:47:35;74807.13;;;-146.65;36.83
57094;BME280;42970;50.996;3.706;2023-04-27T09:50:00;74706.31;;;-146.65;36.27
57094;BME280;42970;50.996;3.706;2023-04-27T09:52:28;74690.16;;;-146.65;35.33
57094;BME280;42970;50.996;3.706;2023-04-27T09:54:54;74778.91;;;-146.65;35.77
57094;BME280;42970;50.996;3.706;2023-04-27T10:02:24;74672.03;;;-146.65;35.24
57094;BME280;42970;50.996;3.706;2023-04-27T10:07:19;74641.78;;;-146.65;35.32
57094;BME280;42970;50.996;3.706;2023-04-27T10:09:45;74684.13;;;-146.65;35.58
57094;BME280;42970;50.996;3.706;2023-04-27T10:14:53;74665.97;;;-146.65;35.80
57094;BME280;42970;50.996;3.706;2023-04-27T10:17:22;74633.72;;;-146.65;34.94
57094;BME280;42970;50.996;3.706;2023-04-27T10:19:53;74587.31;;;-146.65;34.28
57094;BME280;42970;50.996;3.706;2023-04-27T10:22:21;74565.16;;;-146.65;34.73
57094;BME280;42970;50.996;3.706;2023-04-27T10:24:48;74508.69;;;-146.65;33.93
57094;BME280;42970;50.996;3.706;2023-04-27T10:27:14;74609.50;;;-146.65;34.22
57094;BME280;42970;50.996;3.706;2023-04-27T10:29:41;74565.16;;;-146.65;33.68
57094;BME280;42970;50.996;3.706;2023-04-27T10:32:07;74488.50;;;-146.65;33.54
57094;BME280;42970;50.996;3.706;2023-04-27T10:34:34;74424.00;;;-146.65;33.64
57094;BME280;42970;50.996;3.706;2023-04-27T10:37:09;74563.13;;;-146.65;33.62
57094;BME280;42970;50.996;3.706;2023-04-27T10:39:39;74462.31;;;-146.65;33.00
57094;BME280;42970;50.996;3.706;2023-04-27T10:42:06;74303.00;;;-146.65;31.84
57094;BME280;42970;50.996;3.706;2023-04-27T10:44:32;74440.13;;;-146.65;33.42
57094;BME280;42970;50.996;3.706;2023-04-27T10:49:50;74428.03;;;-146.65;33.69
57094;BME280;42970;50.996;3.706;2023-04-27T10:52:16;74508.69;;;-146.65;32.95
57094;BME280;42970;50.996;3.706;2023-04-27T10:54:44;74458.25;;;-146.65;32.70
57094;BME280;42970;50.996;3.706;2023-04-27T10:57:10;74534.91;;;-146.65;33.50
57094;BME280;42970;50.996;3.706;2023-04-27T10:59:46;74460.28;;;-146.65;33.61
57094;BME280;42970;50.996;3.706;2023-04-27T11:02:12;74490.53;;;-146.65;32.49
57094;BME280;42970;50.996;3.706;2023-04-27T11:04:37;74428.03;;;-146.65;32.85
57094;BME280;42970;50.996;3.706;2023-04-27T11:07:04;74355.44;;;-146.65;32.14
57094;BME280;42970;50.996;3.706;2023-04-27T11:09:30;74313.09;;;-146.65;31.58
57094;BME280;42970;50.996;3.706;2023-04-27T11:11:55;74478.44;;;-146.65;31.93
57094;BME280;42970;50.996;3.706;2023-04-27T11:14:24;74403.81;;;-146.65;31.47
57094;BME280;42970;50.996;3.706;2023-04-27T11:16:49;74270.75;;;-146.65;31.53
57094;BME280;42970;50.996;3.706;2023-04-27T11:19:15;74161.84;;;-146.65;30.67
57094;BME280;42970;50.996;3.706;2023-04-27T11:21:40;74055.00;;;-146.65;30.06
57094;BME280;42970;50.996;3.706;2023-04-27T11:24:06;74167.91;;;-146.65;30.48
57094;BME280;42970;50.996;3.706;2023-04-27T11:26:32;74141.69;;;-146.65;29.57
57094;BME280;42970;50.996;3.706;2023-04-27T11:29:04;74157.81;;;-146.65;29.36
57094;BME280;42970;50.996;3.706;2023-04-27T11:31:45;74204.19;;;-146.65;29.79
57094;BME280;42970;50.996;3.706;2023-04-27T11:34:19;74077.16;;;-146.65;29.06
57094;BME280;42970;50.996;3.706;2023-04-27T11:37:06;74107.41;;;-146.65;29.00
57094;BME280;42970;50.996;3.706;2023-04-27T11:39:35;74153.78;;;-146.65;28.68
57094;BME280;42970;50.996;3.706;2023-04-27T11:44:48;73927.97;;;-146.65;28.17
57094;BME280;42970;50.996;3.706;2023-04-27T11:47:16;74014.66;;;-146.65;28.58
57094;BME280;42970;50.996;3.706;2023-04-27T11:49:47;74020.72;;;-146.65;27.62
57094;BME280;42970;50.996;3.706;2023-04-27T11:52:12;73954.19;;;-146.65;27.95
57094;BME280;42970;50.996;3.706;2023-04-27T11:54:38;73899.75;;;-146.65;27.89
57094;BME280;42970;50.996;3.706;2023-04-27T11:57:04;73929.97;;;-146.65;27.68
57094;BME280;42970;50.996;3.706;2023-04-27T11:59:30;74103.38;;;-146.65;27.99
57094;BME280;42970;50.996;3.706;2023-04-27T12:01:55;73919.91;;;-146.65;27.40
57094;BME280;42970;50.996;3.706;2023-04-27T12:04:21;73835.22;;;-146.65;27.56
57094;BME280;42970;50.996;3.706;2023-04-27T12:06:46;73849.34;;;-146.65;26.95
57094;BME280;42970;50.996;3.706;2023-04-27T12:09:11;73911.84;;;-146.65;26.92
57094;BME280;42970;50.996;3.706;2023-04-27T12:11:37;74038.84;;;-146.65;27.11
57094;BME280;42970;50.996;3.706;2023-04-27T12:14:02;74010.63;;;-146.65;27.42
57094;BME280;42970;50.996;3.706;2023-04-27T12:16:28;74089.25;;;-146.65;27.44
57094;BME280;42970;50.996;3.706;2023-04-27T12:18:53;74010.63;;;-146.65;27.29
57094;BME280;42970;50.996;3.706;2023-04-27T12:21:19;73988.44;;;-146.65;27.10
57094;BME280;42970;50.996;3.706;2023-04-27T12:23:47;74010.63;;;-146.65;27.80
57094;BME280;42970;50.996;3.706;2023-04-27T12:26:12;73887.63;;;-146.65;27.11
57094;BME280;42970;50.996;3.706;2023-04-27T12:28:38;73909.81;;;-146.65;27.62
57094;BME280;42970;50.996;3.706;2023-04-27T12:31:04;73895.69;;;-146.65;26.92
57094;BME280;42970;50.996;3.706;2023-04-27T12:33:29;73825.13;;;-146.65;26.06
57094;BME280;42970;50.996;3.706;2023-04-27T12:35:55;73913.84;;;-146.65;26.90
57094;BME280;42970;50.996;3.706;2023-04-27T12:38:20;73833.19;;;-146.65;26.46
57094;BME280;42970;50.996;3.706;2023-04-27T12:43:49;73772.72;;;-146.65;26.34
57094;BME280;42970;50.996;3.706;2023-04-27T12:46:14;73929.97;;;-146.65;27.03
57094;BME280;42970;50.996;3.706;2023-04-27T12:48:40;73899.75;;;-146.65;27.13
57094;BME280;42970;50.996;3.706;2023-04-27T12:51:05;74061.03;;;-146.65;27.92
57094;BME280;42970;50.996;3.706;2023-04-27T12:53:31;74113.47;;;-146.65;29.33